createdAt,value
2023-04-10T00:00:15.000Z,99148
2023-04-10T00:01:42.000Z,99148
2023-04-10T00:03:48.000Z,99146
2023-04-10T00:06:40.000Z,99144
2023-04-10T00:08:06.000Z,99143
2023-04-10T00:10:13.000Z,99147
2023-04-10T00:11:39.000Z,99147
2023-04-10T00:13:45.000Z,99148
2023-04-10T00:15:12.000Z,99149
2023-04-10T00:17:18.000Z,99143
2023-04-10T00:18:44.000Z,99144
2023-04-10T00:20:50.000Z,99143
2023-04-10T00:22:17.000Z,99143
2023-04-10T00:24:23.000Z,99142
2023-04-10T00:25:50.000Z,99146
2023-04-10T00:27:56.000Z,99145
2023-04-10T00:29:22.000Z,99145
2023-04-10T00:31:29.000Z,99147
2023-04-10T00:32:55.000Z,99149
2023-04-10T00:35:01.000Z,99151
2023-04-10T00:36:28.000Z,99147
2023-04-10T00:38:34.000Z,99145
2023-04-10T00:40:01.000Z,99145
2023-04-10T00:42:07.000Z,99143
2023-04-10T00:44:58.000Z,99146
2023-04-10T00:46:24.000Z,99143
2023-04-10T00:48:31.000Z,99147
2023-04-10T00:49:57.000Z,99145
2023-04-10T00:52:03.000Z,99148
2023-04-10T00:53:30.000Z,99149
2023-04-10T00:55:36.000Z,99149
2023-04-10T00:57:02.000Z,99148
2023-04-10T00:59:08.000Z,99146
2023-04-10T01:00:35.000Z,99149
2023-04-10T01:02:41.000Z,99146
2023-04-10T01:04:08.000Z,99151
2023-04-10T01:06:14.000Z,99155
2023-04-10T01:07:40.000Z,99152
2023-04-10T01:09:47.000Z,99153
2023-04-10T01:11:13.000Z,99154
2023-04-10T01:13:19.000Z,99154
2023-04-10T01:14:46.000Z,99160
2023-04-10T01:16:52.000Z,99157
2023-04-10T01:18:18.000Z,99161
2023-04-10T01:20:25.000Z,99162
2023-04-10T01:23:16.000Z,99168
2023-04-10T01:24:42.000Z,99160
2023-04-10T01:26:48.000Z,99160
2023-04-10T01:28:15.000Z,99160
2023-04-10T01:30:21.000Z,99158
2023-04-10T01:31:47.000Z,99156
2023-04-10T01:33:53.000Z,99159
2023-04-10T01:35:20.000Z,99159
2023-04-10T01:37:27.000Z,99158
2023-04-10T01:38:52.000Z,99157
2023-04-10T01:40:58.000Z,99153
2023-04-10T01:42:22.000Z,99156
2023-04-10T01:44:27.000Z,99158
2023-04-10T01:45:53.000Z,99157
2023-04-10T01:48:00.000Z,99157
2023-04-10T01:49:24.000Z,99157
2023-04-10T01:51:30.000Z,99158
2023-04-10T01:52:56.000Z,99157
2023-04-10T01:54:59.000Z,99158
2023-04-10T01:56:24.000Z,99154
2023-04-10T01:58:30.000Z,99154
2023-04-10T02:01:19.000Z,99151
2023-04-10T02:02:53.000Z,99149
2023-04-10T02:04:58.000Z,99147
2023-04-10T02:06:23.000Z,99144
2023-04-10T02:08:26.000Z,99140
2023-04-10T02:09:51.000Z,99138
2023-04-10T02:11:55.000Z,99134
2023-04-10T02:13:19.000Z,99135
2023-04-10T02:15:23.000Z,99132
2023-04-10T02:16:47.000Z,99128
2023-04-10T02:18:51.000Z,99131
2023-04-10T02:20:16.000Z,99133
2023-04-10T02:22:19.000Z,99126
2023-04-10T02:23:43.000Z,99125
2023-04-10T02:25:47.000Z,99127
2023-04-10T02:27:12.000Z,99127
2023-04-10T02:29:15.000Z,99129
2023-04-10T02:30:39.000Z,99134
2023-04-10T02:32:43.000Z,99138
2023-04-10T02:34:07.000Z,99140
2023-04-10T02:36:11.000Z,99134
2023-04-10T02:39:00.000Z,99133
2023-04-10T02:40:25.000Z,99132
2023-04-10T02:42:28.000Z,99132
2023-04-10T02:43:53.000Z,99130
2023-04-10T02:45:57.000Z,99129
2023-04-10T02:47:21.000Z,99130
2023-04-10T02:49:25.000Z,99127
2023-04-10T02:50:49.000Z,99130
2023-04-10T02:52:53.000Z,99133
2023-04-10T02:54:17.000Z,99130
2023-04-10T02:56:21.000Z,99132
2023-04-10T02:57:45.000Z,99125
2023-04-10T02:59:49.000Z,99118
2023-04-10T03:01:13.000Z,99118
2023-04-10T03:03:17.000Z,99118
2023-04-10T03:04:41.000Z,99115
2023-04-10T03:06:45.000Z,99119
2023-04-10T03:08:09.000Z,99118
2023-04-10T03:10:13.000Z,99114
2023-04-10T03:11:37.000Z,99114
2023-04-10T03:13:41.000Z,99113
2023-04-10T03:16:30.000Z,99110
2023-04-10T03:17:54.000Z,99105
2023-04-10T03:19:58.000Z,99104
2023-04-10T03:21:22.000Z,99104
2023-04-10T03:23:26.000Z,99111
2023-04-10T03:24:50.000Z,99111
2023-04-10T03:26:54.000Z,99118
2023-04-10T03:28:18.000Z,99120
2023-04-10T03:30:22.000Z,99117
2023-04-10T03:31:46.000Z,99116
2023-04-10T03:33:50.000Z,99116
2023-04-10T03:35:14.000Z,99116
2023-04-10T03:37:18.000Z,99116
2023-04-10T03:38:42.000Z,99119
2023-04-10T03:40:46.000Z,99116
2023-04-10T03:42:10.000Z,99121
2023-04-10T03:44:14.000Z,99121
2023-04-10T03:45:38.000Z,99117
2023-04-10T03:47:41.000Z,99113
2023-04-10T03:49:06.000Z,99110
2023-04-10T03:51:10.000Z,99107
2023-04-10T03:53:59.000Z,99106
2023-04-10T03:55:23.000Z,99111
2023-04-10T03:57:27.000Z,99110
2023-04-10T03:58:51.000Z,99109
2023-04-10T04:00:54.000Z,99106
2023-04-10T04:02:19.000Z,99106
2023-04-10T04:04:22.000Z,99108
2023-04-10T04:05:47.000Z,99108
2023-04-10T04:07:50.000Z,99108
2023-04-10T04:09:15.000Z,99106
2023-04-10T04:11:18.000Z,99104
2023-04-10T04:12:43.000Z,99101
2023-04-10T04:14:46.000Z,99101
2023-04-10T04:16:10.000Z,99100
2023-04-10T04:18:14.000Z,99095
2023-04-10T04:19:38.000Z,99096
2023-04-10T04:21:42.000Z,99092
2023-04-10T04:23:06.000Z,99091
2023-04-10T04:25:10.000Z,99097
2023-04-10T04:26:34.000Z,99093
2023-04-10T04:28:38.000Z,99089
2023-04-10T04:31:27.000Z,99090
2023-04-10T04:32:52.000Z,99096
2023-04-10T04:34:55.000Z,99100
2023-04-10T04:36:20.000Z,99097
2023-04-10T04:38:23.000Z,99100
2023-04-10T04:39:47.000Z,99101
2023-04-10T04:41:51.000Z,99100
2023-04-10T04:43:15.000Z,99102
2023-04-10T04:45:19.000Z,99099
2023-04-10T04:46:43.000Z,99102
2023-04-10T04:48:48.000Z,99097
2023-04-10T04:50:12.000Z,99103
2023-04-10T04:52:16.000Z,99099
2023-04-10T04:53:40.000Z,99102
2023-04-10T04:55:44.000Z,99104
2023-04-10T04:57:08.000Z,99103
2023-04-10T04:59:12.000Z,99101
2023-04-10T05:00:36.000Z,99103
2023-04-10T05:02:39.000Z,99102
2023-04-10T05:04:04.000Z,99104
2023-04-10T05:06:08.000Z,99107
2023-04-10T05:08:57.000Z,99106
2023-04-10T05:10:22.000Z,99108
2023-04-10T05:12:25.000Z,99107
2023-04-10T05:13:50.000Z,99103
2023-04-10T05:15:53.000Z,99107
2023-04-10T05:17:18.000Z,99102
2023-04-10T05:19:21.000Z,99098
2023-04-10T05:20:46.000Z,99102
2023-04-10T05:22:49.000Z,99098
2023-04-10T05:24:14.000Z,99097
2023-04-10T05:26:17.000Z,99098
2023-04-10T05:27:41.000Z,99095
2023-04-10T05:29:45.000Z,99099
2023-04-10T05:31:09.000Z,99104
2023-04-10T05:33:13.000Z,99101
2023-04-10T05:34:37.000Z,99103
2023-04-10T05:36:41.000Z,99104
2023-04-10T05:38:05.000Z,99104
2023-04-10T05:40:09.000Z,99110
2023-04-10T05:41:33.000Z,99106
2023-04-10T05:43:36.000Z,99108
2023-04-10T05:46:26.000Z,99104
2023-04-10T05:47:50.000Z,99105
2023-04-10T05:49:54.000Z,99104
2023-04-10T05:51:18.000Z,99101
2023-04-10T05:53:24.000Z,99107
2023-04-10T05:54:49.000Z,99103
2023-04-10T05:56:53.000Z,99106
2023-04-10T05:58:20.000Z,99106
2023-04-10T06:00:26.000Z,99105
2023-04-10T06:01:53.000Z,99107
2023-04-10T06:03:59.000Z,99110
2023-04-10T06:05:25.000Z,99110
2023-04-10T06:07:32.000Z,99111
2023-04-10T06:08:58.000Z,99109
2023-04-10T06:11:04.000Z,99105
2023-04-10T06:12:31.000Z,99104
2023-04-10T06:14:37.000Z,99105
2023-04-10T06:16:03.000Z,99099
2023-04-10T06:18:10.000Z,99100
2023-04-10T06:19:36.000Z,99103
2023-04-10T06:21:42.000Z,99095
2023-04-10T06:24:34.000Z,99096
2023-04-10T06:26:00.000Z,99094
2023-04-10T06:28:07.000Z,99092
2023-04-10T06:29:33.000Z,99095
2023-04-10T06:31:39.000Z,99093
2023-04-10T06:33:06.000Z,99094
2023-04-10T06:35:12.000Z,99089
2023-04-10T06:36:38.000Z,99091
2023-04-10T06:38:45.000Z,99089
2023-04-10T06:40:11.000Z,99090
2023-04-10T06:42:17.000Z,99084
2023-04-10T06:43:44.000Z,99084
2023-04-10T06:45:50.000Z,99083
2023-04-10T06:47:16.000Z,99083
2023-04-10T06:49:23.000Z,99082
2023-04-10T06:50:49.000Z,99079
2023-04-10T06:52:55.000Z,99077
2023-04-10T06:54:22.000Z,99077
2023-04-10T06:56:28.000Z,99075
2023-04-10T06:57:54.000Z,99074
2023-04-10T07:00:01.000Z,99071
2023-04-10T07:02:52.000Z,99072
2023-04-10T07:04:19.000Z,99070
2023-04-10T07:06:25.000Z,99069
2023-04-10T07:07:51.000Z,99070
2023-04-10T07:09:57.000Z,99069
2023-04-10T07:11:24.000Z,99068
2023-04-10T07:13:30.000Z,99065
2023-04-10T07:14:57.000Z,99064
2023-04-10T07:17:03.000Z,99062
2023-04-10T07:18:29.000Z,99058
2023-04-10T07:20:36.000Z,99061
2023-04-10T07:22:02.000Z,99064
2023-04-10T07:24:08.000Z,99053
2023-04-10T07:25:35.000Z,99050
2023-04-10T07:27:41.000Z,99049
2023-04-10T07:29:07.000Z,99048
2023-04-10T07:31:13.000Z,99048
2023-04-10T07:32:40.000Z,99051
2023-04-10T07:34:47.000Z,99050
2023-04-10T07:36:13.000Z,99047
2023-04-10T07:38:19.000Z,99048
2023-04-10T07:41:10.000Z,99052
2023-04-10T07:42:37.000Z,99048
2023-04-10T07:44:43.000Z,99048
2023-04-10T07:46:10.000Z,99045
2023-04-10T07:48:16.000Z,99044
2023-04-10T07:49:42.000Z,99043
2023-04-10T07:51:48.000Z,99038
2023-04-10T07:53:15.000Z,99035
2023-04-10T07:55:21.000Z,99033
2023-04-10T07:56:48.000Z,99033
2023-04-10T07:58:54.000Z,99027
2023-04-10T08:00:21.000Z,99029
2023-04-10T08:02:27.000Z,99025
2023-04-10T08:03:54.000Z,99020
2023-04-10T08:06:00.000Z,99016
2023-04-10T08:07:27.000Z,99015
2023-04-10T08:09:33.000Z,99013
2023-04-10T08:10:59.000Z,99012
2023-04-10T08:13:05.000Z,99008
2023-04-10T08:14:32.000Z,99007
2023-04-10T08:16:38.000Z,99008
2023-04-10T08:19:29.000Z,99005
2023-04-10T08:20:56.000Z,99006
2023-04-10T08:23:02.000Z,98998
2023-04-10T08:24:46.000Z,98996
2023-04-10T08:26:52.000Z,98990
2023-04-10T08:28:19.000Z,98989
2023-04-10T08:30:25.000Z,98983
2023-04-10T08:31:51.000Z,98979
2023-04-10T08:33:57.000Z,98979
2023-04-10T08:35:25.000Z,98977
2023-04-10T08:37:31.000Z,98977
2023-04-10T08:38:58.000Z,98977
2023-04-10T08:41:04.000Z,98983
2023-04-10T08:42:30.000Z,98978
2023-04-10T08:44:37.000Z,98974
2023-04-10T08:46:03.000Z,98976
2023-04-10T08:48:09.000Z,98968
2023-04-10T08:49:36.000Z,98972
2023-04-10T08:51:42.000Z,98973
2023-04-10T08:53:08.000Z,98968
2023-04-10T08:55:15.000Z,98970
2023-04-10T08:58:05.000Z,98961
2023-04-10T08:59:32.000Z,98958
2023-04-10T09:01:38.000Z,98961
2023-04-10T09:03:05.000Z,98948
2023-04-10T09:05:11.000Z,98958
2023-04-10T09:06:37.000Z,98954
2023-04-10T09:08:44.000Z,98951
2023-04-10T09:10:10.000Z,98945
2023-04-10T09:12:16.000Z,98949
2023-04-10T09:13:43.000Z,98957
2023-04-10T09:15:49.000Z,98946
2023-04-10T09:17:16.000Z,98955
2023-04-10T09:19:22.000Z,98953
2023-04-10T09:20:48.000Z,98947
2023-04-10T09:22:54.000Z,98947
2023-04-10T09:24:21.000Z,98940
2023-04-10T09:26:27.000Z,98941
2023-04-10T09:27:54.000Z,98936
2023-04-10T09:30:00.000Z,98927
2023-04-10T09:31:26.000Z,98929
2023-04-10T09:33:33.000Z,98926
2023-04-10T09:36:24.000Z,98916
2023-04-10T09:37:50.000Z,98912
2023-04-10T09:39:56.000Z,98907
2023-04-10T09:41:23.000Z,98908
2023-04-10T09:43:29.000Z,98899
2023-04-10T09:44:56.000Z,98898
2023-04-10T09:47:02.000Z,98896
2023-04-10T09:48:29.000Z,98890
2023-04-10T09:50:35.000Z,98881
2023-04-10T09:52:06.000Z,98886
2023-04-10T09:54:12.000Z,98882
2023-04-10T09:55:38.000Z,98881
2023-04-10T09:57:45.000Z,98868
2023-04-10T09:59:11.000Z,98872
2023-04-10T10:01:17.000Z,98862
2023-04-10T10:02:44.000Z,98868
2023-04-10T10:04:50.000Z,98865
2023-04-10T10:06:17.000Z,98863
2023-04-10T10:08:23.000Z,98860
2023-04-10T10:09:49.000Z,98861
2023-04-10T10:11:55.000Z,98858
2023-04-10T10:14:47.000Z,98857
2023-04-10T10:16:13.000Z,98855
2023-04-10T10:18:19.000Z,98852
2023-04-10T10:19:46.000Z,98846
2023-04-10T10:21:52.000Z,98848
2023-04-10T10:23:18.000Z,98842
2023-04-10T10:25:24.000Z,98847
2023-04-10T10:26:51.000Z,98840
2023-04-10T10:28:57.000Z,98832
2023-04-10T10:30:24.000Z,98832
2023-04-10T10:32:36.000Z,98826
2023-04-10T10:34:03.000Z,98815
2023-04-10T10:36:09.000Z,98812
2023-04-10T10:37:35.000Z,98812
2023-04-10T10:39:41.000Z,98808
2023-04-10T10:41:08.000Z,98807
2023-04-10T10:43:14.000Z,98803
2023-04-10T10:44:41.000Z,98799
2023-04-10T10:46:47.000Z,98801
2023-04-10T10:48:13.000Z,98798
2023-04-10T10:50:19.000Z,98797
2023-04-10T10:53:11.000Z,98802
2023-04-10T10:54:38.000Z,98795
2023-04-10T10:56:56.000Z,98797
2023-04-10T10:58:22.000Z,98799
2023-04-10T11:00:28.000Z,98802
2023-04-10T11:01:55.000Z,98791
2023-04-10T11:04:01.000Z,98788
2023-04-10T11:05:28.000Z,98790
2023-04-10T11:07:34.000Z,98784
2023-04-10T11:09:00.000Z,98781
2023-04-10T11:11:06.000Z,98773
2023-04-10T11:12:33.000Z,98775
2023-04-10T11:14:39.000Z,98767
2023-04-10T11:16:06.000Z,98770
2023-04-10T11:18:12.000Z,98765
2023-04-10T11:19:38.000Z,98756
2023-04-10T11:21:44.000Z,98755
2023-04-10T11:23:11.000Z,98749
2023-04-10T11:25:17.000Z,98742
2023-04-10T11:26:43.000Z,98748
2023-04-10T11:28:50.000Z,98752
2023-04-10T11:31:41.000Z,98743
2023-04-10T11:33:07.000Z,98742
2023-04-10T11:35:14.000Z,98744
2023-04-10T11:36:40.000Z,98738
2023-04-10T11:38:46.000Z,98723
2023-04-10T11:40:13.000Z,98727
2023-04-10T11:42:19.000Z,98732
2023-04-10T11:43:45.000Z,98721
2023-04-10T11:45:52.000Z,98724
2023-04-10T11:47:18.000Z,98718
2023-04-10T11:49:24.000Z,98720
2023-04-10T11:50:51.000Z,98722
2023-04-10T11:52:57.000Z,98721
2023-04-10T11:54:23.000Z,98719
2023-04-10T11:56:30.000Z,98709
2023-04-10T11:57:56.000Z,98703
2023-04-10T12:00:02.000Z,98691
2023-04-10T12:01:29.000Z,98693
2023-04-10T12:03:35.000Z,98682
2023-04-10T12:05:02.000Z,98679
2023-04-10T12:07:08.000Z,98685
2023-04-10T12:09:59.000Z,98667
2023-04-10T12:11:26.000Z,98671
2023-04-10T12:13:32.000Z,98667
2023-04-10T12:14:58.000Z,98659
2023-04-10T12:17:05.000Z,98664
2023-04-10T12:18:31.000Z,98667
2023-04-10T12:20:37.000Z,98659
2023-04-10T12:22:04.000Z,98666
2023-04-10T12:24:10.000Z,98662
2023-04-10T12:25:36.000Z,98660
2023-04-10T12:27:42.000Z,98652
2023-04-10T12:29:09.000Z,98654
2023-04-10T12:31:15.000Z,98653
2023-04-10T12:32:41.000Z,98647
2023-04-10T12:34:48.000Z,98647
2023-04-10T12:36:14.000Z,98651
2023-04-10T12:38:20.000Z,98644
2023-04-10T12:39:47.000Z,98646
2023-04-10T12:41:53.000Z,98640
2023-04-10T12:43:20.000Z,98632
2023-04-10T12:45:26.000Z,98639
2023-04-10T12:48:17.000Z,98640
2023-04-10T12:49:43.000Z,98639
2023-04-10T12:51:50.000Z,98639
2023-04-10T12:53:16.000Z,98644
2023-04-10T12:55:22.000Z,98634
2023-04-10T12:56:49.000Z,98633
2023-04-10T12:58:55.000Z,98625
2023-04-10T13:00:22.000Z,98629
2023-04-10T13:02:28.000Z,98627
2023-04-10T13:03:55.000Z,98628
2023-04-10T13:06:01.000Z,98627
2023-04-10T13:07:27.000Z,98624
2023-04-10T13:09:33.000Z,98622
2023-04-10T13:11:00.000Z,98623
2023-04-10T13:13:06.000Z,98608
2023-04-10T13:14:33.000Z,98606
2023-04-10T13:16:39.000Z,98601
2023-04-10T13:18:06.000Z,98593
2023-04-10T13:20:12.000Z,98597
2023-04-10T13:21:39.000Z,98598
2023-04-10T13:23:45.000Z,98598
2023-04-10T13:26:36.000Z,98586
2023-04-10T13:28:02.000Z,98586
2023-04-10T13:30:09.000Z,98587
2023-04-10T13:31:35.000Z,98580
2023-04-10T13:33:42.000Z,98579
2023-04-10T13:35:08.000Z,98580
2023-04-10T13:37:14.000Z,98574
2023-04-10T13:38:41.000Z,98571
2023-04-10T13:40:47.000Z,98565
2023-04-10T13:42:13.000Z,98562
2023-04-10T13:44:19.000Z,98566
2023-04-10T13:45:46.000Z,98568
2023-04-10T13:47:52.000Z,98565
2023-04-10T13:49:18.000Z,98563
2023-04-10T13:51:24.000Z,98562
2023-04-10T13:52:51.000Z,98559
2023-04-10T13:54:59.000Z,98550
2023-04-10T13:56:26.000Z,98549
2023-04-10T13:58:32.000Z,98546
2023-04-10T13:59:58.000Z,98538
2023-04-10T14:02:05.000Z,98540
2023-04-10T14:04:56.000Z,98535
2023-04-10T14:06:23.000Z,98537
2023-04-10T14:08:29.000Z,98524
2023-04-10T14:09:55.000Z,98520
2023-04-10T14:12:01.000Z,98516
2023-04-10T14:13:28.000Z,98516
2023-04-10T14:15:34.000Z,98520
2023-04-10T14:17:00.000Z,98517
2023-04-10T14:19:07.000Z,98508
2023-04-10T14:20:33.000Z,98506
2023-04-10T14:22:39.000Z,98500
2023-04-10T14:24:06.000Z,98499
2023-04-10T14:26:12.000Z,98492
2023-04-10T14:27:38.000Z,98496
2023-04-10T14:29:44.000Z,98485
2023-04-10T14:31:21.000Z,98495
2023-04-10T14:33:27.000Z,98485
2023-04-10T14:34:54.000Z,98487
2023-04-10T14:37:00.000Z,98481
2023-04-10T14:38:27.000Z,98481
2023-04-10T14:40:33.000Z,98473
2023-04-10T14:43:24.000Z,98467
2023-04-10T14:44:50.000Z,98461
2023-04-10T14:46:56.000Z,98461
2023-04-10T14:48:23.000Z,98464
2023-04-10T14:50:29.000Z,98458
2023-04-10T14:51:56.000Z,98453
2023-04-10T14:54:02.000Z,98452
2023-04-10T14:55:28.000Z,98443
2023-04-10T14:57:34.000Z,98437
2023-04-10T14:59:01.000Z,98428
2023-04-10T15:01:07.000Z,98425
2023-04-10T15:02:34.000Z,98426
2023-04-10T15:04:40.000Z,98425
2023-04-10T15:06:07.000Z,98428
2023-04-10T15:08:13.000Z,98422
2023-04-10T15:09:39.000Z,98425
2023-04-10T15:11:45.000Z,98421
2023-04-10T15:13:12.000Z,98411
2023-04-10T15:15:18.000Z,98413
2023-04-10T15:16:44.000Z,98413
2023-04-10T15:18:51.000Z,98406
2023-04-10T15:21:42.000Z,98403
2023-04-10T15:23:08.000Z,98402
2023-04-10T15:25:15.000Z,98400
2023-04-10T15:26:41.000Z,98398
2023-04-10T15:28:47.000Z,98386
2023-04-10T15:30:14.000Z,98384
2023-04-10T15:32:20.000Z,98379
2023-04-10T15:33:47.000Z,98380
2023-04-10T15:35:53.000Z,98371
2023-04-10T15:37:19.000Z,98373
2023-04-10T15:39:26.000Z,98364
2023-04-10T15:40:52.000Z,98365
2023-04-10T15:42:58.000Z,98359
2023-04-10T15:44:25.000Z,98356
2023-04-10T15:46:31.000Z,98347
2023-04-10T15:47:57.000Z,98345
2023-04-10T15:50:04.000Z,98336
2023-04-10T15:51:30.000Z,98332
2023-04-10T15:53:36.000Z,98326
2023-04-10T15:55:03.000Z,98320
2023-04-10T15:57:09.000Z,98323
2023-04-10T16:00:00.000Z,98316
2023-04-10T16:01:27.000Z,98312
2023-04-10T16:03:33.000Z,98311
2023-04-10T16:05:00.000Z,98310
2023-04-10T16:07:06.000Z,98300
2023-04-10T16:08:33.000Z,98293
2023-04-10T16:10:39.000Z,98296
2023-04-10T16:12:05.000Z,98292
2023-04-10T16:14:11.000Z,98288
2023-04-10T16:15:38.000Z,98283
2023-04-10T16:17:44.000Z,98274
2023-04-10T16:19:11.000Z,98272
2023-04-10T16:21:17.000Z,98266
2023-04-10T16:22:43.000Z,98263
2023-04-10T16:24:50.000Z,98259
2023-04-10T16:26:16.000Z,98259
2023-04-10T16:28:22.000Z,98253
2023-04-10T16:29:49.000Z,98252
2023-04-10T16:31:55.000Z,98252
2023-04-10T16:33:22.000Z,98254
2023-04-10T16:35:28.000Z,98250
2023-04-10T16:38:19.000Z,98246
2023-04-10T16:39:46.000Z,98256
2023-04-10T16:41:52.000Z,98263
2023-04-10T16:43:18.000Z,98265
2023-04-10T16:45:24.000Z,98264
2023-04-10T16:46:51.000Z,98255
2023-04-10T16:48:57.000Z,98252
2023-04-10T16:50:24.000Z,98249
2023-04-10T16:52:30.000Z,98250
2023-04-10T16:53:57.000Z,98249
2023-04-10T16:56:03.000Z,98245
2023-04-10T16:57:31.000Z,98242
2023-04-10T16:59:37.000Z,98243
2023-04-10T17:01:04.000Z,98240
2023-04-10T17:03:10.000Z,98236
2023-04-10T17:04:37.000Z,98235
2023-04-10T17:06:43.000Z,98227
2023-04-10T17:08:09.000Z,98226
2023-04-10T17:10:15.000Z,98221
2023-04-10T17:11:42.000Z,98218
2023-04-10T17:13:48.000Z,98213
2023-04-10T17:16:39.000Z,98212
2023-04-10T17:18:06.000Z,98210
2023-04-10T17:20:12.000Z,98209
2023-04-10T17:21:39.000Z,98205
2023-04-10T17:23:45.000Z,98202
2023-04-10T17:25:11.000Z,98196
2023-04-10T17:27:17.000Z,98196
2023-04-10T17:28:44.000Z,98190
2023-04-10T17:30:50.000Z,98190
2023-04-10T17:32:16.000Z,98192
2023-04-10T17:34:23.000Z,98192
2023-04-10T17:35:49.000Z,98190
2023-04-10T17:37:55.000Z,98186
2023-04-10T17:39:22.000Z,98186
2023-04-10T17:41:28.000Z,98182
2023-04-10T17:42:54.000Z,98182
2023-04-10T17:45:00.000Z,98180
2023-04-10T17:46:27.000Z,98180
2023-04-10T17:48:33.000Z,98175
2023-04-10T17:50:00.000Z,98179
2023-04-10T17:52:06.000Z,98177
2023-04-10T17:54:57.000Z,98167
2023-04-10T17:56:23.000Z,98166
2023-04-10T17:58:30.000Z,98164
2023-04-10T17:59:56.000Z,98170
2023-04-10T18:02:02.000Z,98169
2023-04-10T18:03:29.000Z,98166
2023-04-10T18:05:35.000Z,98165
2023-04-10T18:07:02.000Z,98165
2023-04-10T18:09:08.000Z,98162
2023-04-10T18:10:34.000Z,98156
2023-04-10T18:12:40.000Z,98154
2023-04-10T18:14:07.000Z,98151
2023-04-10T18:16:13.000Z,98149
2023-04-10T18:17:40.000Z,98149
2023-04-10T18:19:46.000Z,98152
2023-04-10T18:21:13.000Z,98149
2023-04-10T18:23:19.000Z,98135
2023-04-10T18:24:45.000Z,98127
2023-04-10T18:26:51.000Z,98122
2023-04-10T18:28:18.000Z,98126
2023-04-10T18:30:26.000Z,98136
2023-04-10T18:33:17.000Z,98136
2023-04-10T18:34:44.000Z,98138
2023-04-10T18:36:50.000Z,98141
2023-04-10T18:38:16.000Z,98142
2023-04-10T18:40:22.000Z,98137
2023-04-10T18:41:49.000Z,98137
2023-04-10T18:43:55.000Z,98128
2023-04-10T18:45:31.000Z,98127
2023-04-10T18:47:37.000Z,98126
2023-04-10T18:49:04.000Z,98124
2023-04-10T18:51:10.000Z,98131
2023-04-10T18:52:36.000Z,98133
2023-04-10T18:54:43.000Z,98128
2023-04-10T18:56:09.000Z,98121
2023-04-10T18:58:15.000Z,98110
2023-04-10T18:59:42.000Z,98098
2023-04-10T19:01:48.000Z,98102
2023-04-10T19:03:15.000Z,98094
2023-04-10T19:05:21.000Z,98100
2023-04-10T19:06:47.000Z,98102
2023-04-10T19:08:54.000Z,98105
2023-04-10T19:11:45.000Z,98104
2023-04-10T19:13:11.000Z,98102
2023-04-10T19:15:17.000Z,98100
2023-04-10T19:16:44.000Z,98106
2023-04-10T19:18:50.000Z,98108
2023-04-10T19:20:16.000Z,98111
2023-04-10T19:22:57.000Z,98113
2023-04-10T19:24:23.000Z,98115
2023-04-10T19:26:29.000Z,98118
2023-04-10T19:27:56.000Z,98119
2023-04-10T19:30:02.000Z,98114
2023-04-10T19:31:29.000Z,98106
2023-04-10T19:33:35.000Z,98100
2023-04-10T19:35:02.000Z,98102
2023-04-10T19:37:08.000Z,98109
2023-04-10T19:38:34.000Z,98102
2023-04-10T19:40:40.000Z,98101
2023-04-10T19:42:07.000Z,98096
2023-04-10T19:44:13.000Z,98090
2023-04-10T19:45:40.000Z,98081
2023-04-10T19:47:46.000Z,98075
2023-04-10T19:50:37.000Z,98064
2023-04-10T19:52:04.000Z,98060
2023-04-10T19:54:10.000Z,98066
2023-04-10T19:55:36.000Z,98066
2023-04-10T19:57:42.000Z,98070
2023-04-10T19:59:09.000Z,98069
2023-04-10T20:01:15.000Z,98078
2023-04-10T20:02:41.000Z,98079
2023-04-10T20:04:48.000Z,98073
2023-04-10T20:06:15.000Z,98074
2023-04-10T20:08:22.000Z,98066
2023-04-10T20:09:48.000Z,98068
2023-04-10T20:11:54.000Z,98064
2023-04-10T20:13:21.000Z,98058
2023-04-10T20:15:27.000Z,98053
2023-04-10T20:16:54.000Z,98044
2023-04-10T20:19:00.000Z,98036
2023-04-10T20:20:26.000Z,98029
2023-04-10T20:22:32.000Z,98024
2023-04-10T20:23:59.000Z,98026
2023-04-10T20:26:05.000Z,98031
2023-04-10T20:28:56.000Z,98026
2023-04-10T20:30:23.000Z,98019
2023-04-10T20:32:29.000Z,98007
2023-04-10T20:33:56.000Z,98008
2023-04-10T20:36:02.000Z,98000
2023-04-10T20:37:28.000Z,97998
2023-04-10T20:39:34.000Z,97996
2023-04-10T20:41:01.000Z,97989
2023-04-10T20:43:07.000Z,97986
2023-04-10T20:44:33.000Z,97985
2023-04-10T20:46:40.000Z,97988
2023-04-10T20:48:06.000Z,97991
2023-04-10T20:50:12.000Z,98001
2023-04-10T20:51:39.000Z,98004
2023-04-10T20:53:45.000Z,98006
2023-04-10T20:55:12.000Z,98009
2023-04-10T20:57:18.000Z,98005
2023-04-10T20:58:44.000Z,98001
2023-04-10T21:00:51.000Z,98006
2023-04-10T21:02:17.000Z,98008
2023-04-10T21:04:24.000Z,98002
2023-04-10T21:07:15.000Z,98000
2023-04-10T21:08:41.000Z,98002
2023-04-10T21:10:47.000Z,97999
2023-04-10T21:12:14.000Z,97997
2023-04-10T21:14:20.000Z,97993
2023-04-10T21:15:47.000Z,97985
2023-04-10T21:17:53.000Z,97974
2023-04-10T21:19:19.000Z,97975
2023-04-10T21:21:25.000Z,97971
2023-04-10T21:22:52.000Z,97973
2023-04-10T21:24:58.000Z,97974
2023-04-10T21:26:24.000Z,97976
2023-04-10T21:28:31.000Z,97981
2023-04-10T21:29:57.000Z,97986
2023-04-10T21:32:03.000Z,97979
2023-04-10T21:33:30.000Z,97978
2023-04-10T21:35:36.000Z,97974
2023-04-10T21:37:03.000Z,97967
2023-04-10T21:39:09.000Z,97963
2023-04-10T21:40:35.000Z,97961
2023-04-10T21:42:41.000Z,97962
2023-04-10T21:45:32.000Z,97946
2023-04-10T21:46:59.000Z,97935
2023-04-10T21:49:05.000Z,97937
2023-04-10T21:50:32.000Z,97931
2023-04-10T21:52:38.000Z,97918
2023-04-10T21:54:04.000Z,97896
2023-04-10T21:56:10.000Z,97885
2023-04-10T21:57:37.000Z,97883
2023-04-10T21:59:43.000Z,97889
2023-04-10T22:01:09.000Z,97894
2023-04-10T22:03:16.000Z,97889
2023-04-10T22:04:43.000Z,97890
2023-04-10T22:07:00.000Z,97879
2023-04-10T22:08:27.000Z,97878
2023-04-10T22:10:33.000Z,97877
2023-04-10T22:11:59.000Z,97880
2023-04-10T22:14:05.000Z,97882
2023-04-10T22:15:44.000Z,97886
2023-04-10T22:17:50.000Z,97880
2023-04-10T22:19:17.000Z,97876
2023-04-10T22:21:23.000Z,97857
2023-04-10T22:24:14.000Z,97863
2023-04-10T22:25:41.000Z,97871
2023-04-10T22:27:47.000Z,97870
2023-04-10T22:29:13.000Z,97858
2023-04-10T22:31:19.000Z,97852
2023-04-10T22:32:46.000Z,97845
2023-04-10T22:34:52.000Z,97850
2023-04-10T22:36:19.000Z,97854
2023-04-10T22:38:25.000Z,97864
2023-04-10T22:39:51.000Z,97859
2023-04-10T22:41:57.000Z,97848
2023-04-10T22:43:24.000Z,97846
2023-04-10T22:45:30.000Z,97836
2023-04-10T22:46:56.000Z,97837
2023-04-10T22:49:03.000Z,97833
2023-04-10T22:50:29.000Z,97841
2023-04-10T22:52:35.000Z,97846
2023-04-10T22:54:02.000Z,97849
2023-04-10T22:56:08.000Z,97856
2023-04-10T22:57:34.000Z,97859
2023-04-10T22:59:40.000Z,97874
2023-04-10T23:02:32.000Z,97870
2023-04-10T23:03:58.000Z,97869
2023-04-10T23:06:05.000Z,97871
2023-04-10T23:07:31.000Z,97881
2023-04-10T23:09:37.000Z,97874
2023-04-10T23:11:04.000Z,97879
2023-04-10T23:13:10.000Z,97884
2023-04-10T23:14:36.000Z,97895
2023-04-10T23:16:42.000Z,97894
2023-04-10T23:18:09.000Z,97894
2023-04-10T23:20:15.000Z,97889
2023-04-10T23:21:42.000Z,97902
2023-04-10T23:23:48.000Z,97901
2023-04-10T23:25:14.000Z,97901